Longview, TX

5:08 AM CST on March 06, 2015 (GMT -0600)
Gilmer | Change Station
CLOSE
Current Station
Airport
Location: Gilmer,
Elevation: 413 ft
Nearby Weather Stations
Active Advisory: Flood Warning Active Notice: Local Storm Report

Elev 413 ft 32.70 °N, 94.95 °W | Updated 13 minutes ago

Clear
Clear
24 °F
Feels Like 24 °F
N
0
Wind Variable Wind from North

Today
High -- | Low -- °F
--% Chance of Precip.
Yesterday
High -- | Low -- °F
Precip. -- in
6:40 AM 6:20 PM
Full, 100% visible
Pressure 30.57 in
Visibility 10.0 miles
Clouds Clear
Dew Point 23 °F
Humidity 96%
Rainfall 0.00 in
Snow Depth Not available.
UV 0 out of 12
Pollen 1.00 out of 12
Air Quality Not available.
Flu Activity Not available.
METAR KJXI 061055Z AUTO 00000KT 10SM CLR M04/M05 A3057 RMK AO2 T10441050

More Conditions Fewer Conditions

Pressure 30.57 in
Visibility 10.0 miles
Clouds Clear
Dew Point 23 °F
Humidity 96%
Rainfall 0.00 in
Snow Depth Not available.
UV 0 out of 12
Pollen 1.00 out of 12
Air Quality Not available.
Flu Activity Not available.
METAR KJXI 061055Z AUTO 00000KT 10SM CLR M04/M05 A3057 RMK AO2 T10441050

More Conditions Fewer Conditions

10-Day Weather Forecast

Almanac

Astronomy

Mar. 06, 2015 Rise Set
Actual Time
Civil Twilight
Nautical Twilight
Astronomical Twilight
Moon
Length of Visible Light
Length of Day
Tomorrow will be .
, % of the Moon is Illuminated

Today's Extremes

State Highs State Lows

Community

WunderPhotos

Upload Photos

1,803,223 photos uploaded!

WunderBlogs® & News

Nearby

Air Quality

  Air Quality AQ Index Pollutant
Not available.

Snow Depth

Station Depth Elevation

Earthquake Activity

City Distance Mag. Time & Date
Minimum magnitude displayed is 2.5.

Coastal Water Temperatures

Place Temperature

Nearby Weather Stations

Flood Warning
Statement as of 10:07 AM CST on March 05, 2015

The Flood Warning continues for
the rabbit creek at Kilgore.
* From this evening to Saturday morning... or until the warning is
cancelled.
* At 7:10 am Thursday the stage was 9.0 feet.
* Minor flooding is forecast.
* Flood stage is 10.0 feet.
* Forecast... the river is expected to rise to near flood stage this
evening.
* Impact... at 10.0 feet... expect lowland flooding of Timber resources
in and near the creek. Some oil field operations may be affected.


Lat... Lon 3233 9499 3242 9489 3245 9479 3242 9478 3230 9498